createdAt,value
2018-04-16T00:01:18.723Z,1010.08
2018-04-16T00:02:18.641Z,1010.06
2018-04-16T00:03:18.739Z,1010.07
2018-04-16T00:04:18.751Z,1010.07
2018-04-16T00:05:18.818Z,1010.09
2018-04-16T00:06:18.823Z,1010.05
2018-04-16T00:07:18.543Z,1010.07
2018-04-16T00:08:18.665Z,1010.01
2018-04-16T00:09:18.661Z,1010.06
2018-04-16T00:10:18.755Z,1010.07
2018-04-16T00:11:18.781Z,1010.07
2018-04-16T00:12:21.007Z,1010.04
2018-04-16T00:13:18.656Z,1010.08
2018-04-16T00:14:18.547Z,1009.98
2018-04-16T00:15:21.048Z,1009.97
2018-04-16T00:16:18.786Z,1009.91
2018-04-16T00:17:18.851Z,1009.87
2018-04-16T00:18:18.915Z,1009.83
2018-04-16T00:19:21.044Z,1009.83
2018-04-16T00:20:18.563Z,1009.84
2018-04-16T00:21:18.909Z,1009.71
2018-04-16T00:22:19.017Z,1009.71
2018-04-16T00:23:19.032Z,1009.69
2018-04-16T00:24:18.912Z,1009.60
2018-04-16T00:25:18.879Z,1009.63
2018-04-16T00:26:21.005Z,1009.58
2018-04-16T00:27:18.935Z,1009.57
2018-04-16T00:28:18.956Z,1009.58
2018-04-16T00:29:18.990Z,1009.61
2018-04-16T00:30:19.055Z,1009.56
2018-04-16T00:31:20.997Z,1009.58
2018-04-16T00:32:19.055Z,1009.54
2018-04-16T00:33:18.612Z,1009.52
2018-04-16T00:34:18.738Z,1009.54
2018-04-16T00:35:18.716Z,1009.51
2018-04-16T00:36:18.782Z,1009.38
2018-04-16T00:37:18.768Z,1009.34
2018-04-16T00:38:18.763Z,1009.37
2018-04-16T00:39:18.830Z,1009.28
2018-04-16T00:40:21.056Z,1009.18
2018-04-16T00:41:18.759Z,1009.18
2018-04-16T00:42:21.003Z,1009.16
2018-04-16T00:43:18.616Z,1009.20
2018-04-16T00:44:18.584Z,1009.18
2018-04-16T00:45:18.615Z,1009.20
2018-04-16T00:46:19.004Z,1009.28
2018-04-16T00:47:18.957Z,1009.29
2018-04-16T00:48:18.577Z,1009.32
2018-04-16T00:49:21.052Z,1009.30
2018-04-16T00:50:18.647Z,1009.31
2018-04-16T00:51:18.719Z,1009.30
2018-04-16T00:52:21.067Z,1009.28
2018-04-16T00:53:21.494Z,1009.30
2018-04-16T00:54:18.706Z,1009.24
2018-04-16T00:55:18.843Z,1009.30
2018-04-16T00:56:18.856Z,1009.28
2018-04-16T00:57:18.931Z,1009.25
2018-04-16T00:58:21.064Z,1009.25
2018-04-16T00:59:20.987Z,1009.26
2018-04-16T01:00:18.151Z,1009.26
2018-04-16T01:01:20.995Z,1009.33
2018-04-16T01:02:18.560Z,1009.25
2018-04-16T01:03:18.744Z,1009.24
2018-04-16T01:04:18.956Z,1009.17
2018-04-16T01:05:18.955Z,1009.17
2018-04-16T01:06:18.906Z,1009.17
2018-04-16T01:07:19.052Z,1009.25
2018-04-16T01:08:21.043Z,1009.29
2018-04-16T01:09:19.034Z,1009.34
2018-04-16T01:10:18.551Z,1009.28
2018-04-16T01:11:18.958Z,1009.32
2018-04-16T01:12:18.911Z,1009.38
2018-04-16T01:13:21.064Z,1009.41
2018-04-16T01:14:18.942Z,1009.45
2018-04-16T01:15:21.026Z,1009.39
2018-04-16T01:16:21.000Z,1009.48
2018-04-16T01:17:56.654Z,1009.42
2018-04-16T01:18:56.503Z,1009.48
2018-04-16T01:19:56.460Z,1009.40
2018-04-16T01:20:56.575Z,1009.49
2018-04-16T01:21:58.810Z,1009.48
2018-04-16T01:22:56.563Z,1009.43
2018-04-16T01:23:56.580Z,1009.51
2018-04-16T01:24:58.803Z,1009.48
2018-04-16T01:25:56.750Z,1009.49
2018-04-16T01:26:58.875Z,1009.51
2018-04-16T01:27:58.797Z,1009.48
2018-04-16T01:28:58.821Z,1009.40
2018-04-16T01:29:56.662Z,1009.35
2018-04-16T01:30:58.782Z,1009.35
2018-04-16T01:31:58.818Z,1009.35
2018-04-16T01:32:58.847Z,1009.28
2018-04-16T01:33:58.875Z,1009.27
2018-04-16T01:34:56.509Z,1009.28
2018-04-16T01:35:56.711Z,1009.29
2018-04-16T01:36:58.844Z,1009.21
2018-04-16T01:37:56.654Z,1009.20
2018-04-16T01:38:56.536Z,1009.20
2018-04-16T01:39:56.707Z,1009.17
2018-04-16T01:40:58.847Z,1009.21
2018-04-16T01:41:56.604Z,1009.14
2018-04-16T01:42:56.690Z,1009.16
2018-04-16T01:43:56.755Z,1009.11
2018-04-16T01:44:56.647Z,1009.10
2018-04-16T01:45:56.544Z,1009.08
2018-04-16T01:46:56.696Z,1009.06
2018-04-16T01:47:58.819Z,1009.04
2018-04-16T01:48:56.512Z,1009.05
2018-04-16T01:49:56.460Z,1009.03
2018-04-16T01:50:56.871Z,1008.97
2018-04-16T01:51:58.892Z,1008.97
2018-04-16T01:52:56.650Z,1008.98
2018-04-16T01:53:56.550Z,1009.02
2018-04-16T01:54:56.770Z,1008.93
2018-04-16T01:55:58.858Z,1009.00
2018-04-16T01:56:56.730Z,1008.97
2018-04-16T01:57:56.638Z,1008.97
2018-04-16T02:00:13.191Z,1008.89
2018-04-16T02:01:10.683Z,1008.78
2018-04-16T02:02:10.750Z,1008.83
2018-04-16T02:03:10.790Z,1008.74
2018-04-16T02:04:11.055Z,1008.86
2018-04-16T02:05:11.075Z,1008.78
2018-04-16T02:06:11.135Z,1008.81
2018-04-16T02:07:11.147Z,1008.83
2018-04-16T02:08:13.184Z,1008.98
2018-04-16T02:09:11.171Z,1008.97
2018-04-16T02:10:10.661Z,1009.06
2018-04-16T02:11:11.098Z,1009.04
2018-04-16T02:12:13.739Z,1009.07
2018-04-16T02:13:10.795Z,1009.02
2018-04-16T02:14:10.903Z,1009.01
2018-04-16T02:15:13.132Z,1009.08
2018-04-16T02:16:10.849Z,1009.03
2018-04-16T02:17:10.827Z,1009.03
2018-04-16T02:18:10.695Z,1009.00
2018-04-16T02:19:11.088Z,1009.00
2018-04-16T02:20:10.915Z,1009.02
2018-04-16T02:21:10.826Z,1008.99
2018-04-16T02:22:13.123Z,1009.04
2018-04-16T02:23:10.955Z,1009.06
2018-04-16T02:24:11.093Z,1009.03
2018-04-16T02:25:10.635Z,1009.06
2018-04-16T02:26:11.116Z,1009.03
2018-04-16T02:27:10.722Z,1009.03
2018-04-16T02:28:11.156Z,1009.04
2018-04-16T02:29:11.203Z,1009.04
2018-04-16T02:30:10.885Z,1009.00
2018-04-16T02:31:10.688Z,1009.06
2018-04-16T02:32:11.073Z,1009.11
2018-04-16T02:33:10.623Z,1009.15
2018-04-16T02:34:10.747Z,1009.10
2018-04-16T02:35:11.004Z,1009.16
2018-04-16T02:36:11.028Z,1009.13
2018-04-16T02:37:11.071Z,1009.13
2018-04-16T02:38:11.029Z,1009.10
2018-04-16T02:39:10.895Z,1008.99
2018-04-16T02:40:10.939Z,1009.02
2018-04-16T02:41:11.074Z,1008.97
2018-04-16T02:42:10.962Z,1008.94
2018-04-16T02:43:11.109Z,1008.87
2018-04-16T02:44:11.059Z,1008.85
2018-04-16T02:45:13.221Z,1008.90
2018-04-16T02:46:13.159Z,1008.93
2018-04-16T02:47:13.207Z,1008.90
2018-04-16T02:48:11.211Z,1008.88
2018-04-16T02:49:13.139Z,1008.89
2018-04-16T02:50:13.134Z,1008.89
2018-04-16T02:51:10.708Z,1008.78
2018-04-16T02:52:11.146Z,1008.82
2018-04-16T02:53:11.088Z,1008.80
2018-04-16T02:54:11.048Z,1008.82
2018-04-16T02:55:13.172Z,1008.81
2018-04-16T02:56:13.215Z,1008.83
2018-04-16T02:57:11.108Z,1008.85
2018-04-16T02:58:13.151Z,1008.85
2018-04-16T02:59:10.423Z,1008.83
2018-04-16T03:00:10.898Z,1008.80
2018-04-16T03:01:10.860Z,1008.87
2018-04-16T03:02:10.903Z,1008.83
2018-04-16T03:03:10.913Z,1008.89
2018-04-16T03:04:10.863Z,1008.94
2018-04-16T03:05:10.792Z,1008.87
2018-04-16T03:06:11.161Z,1008.86
2018-04-16T03:07:11.058Z,1008.84
2018-04-16T03:08:11.085Z,1008.88
2018-04-16T03:09:10.771Z,1008.90
2018-04-16T03:10:11.025Z,1008.88
2018-04-16T03:11:13.152Z,1008.85
2018-04-16T03:12:10.744Z,1008.84
2018-04-16T03:13:11.128Z,1008.78
2018-04-16T03:14:11.092Z,1008.79
2018-04-16T03:15:13.219Z,1008.76
2018-04-16T03:16:10.801Z,1008.79
2018-04-16T03:17:11.169Z,1008.79
2018-04-16T03:18:11.080Z,1008.79
2018-04-16T03:19:13.240Z,1008.88
2018-04-16T03:20:10.734Z,1008.83
2018-04-16T03:21:10.748Z,1008.75
2018-04-16T03:22:13.203Z,1008.84
2018-04-16T03:23:10.815Z,1008.83
2018-04-16T03:24:10.810Z,1008.91
2018-04-16T03:25:11.170Z,1008.93
2018-04-16T03:26:11.080Z,1008.99
2018-04-16T03:27:13.199Z,1008.98
2018-04-16T03:28:13.167Z,1008.97
2018-04-16T03:29:11.123Z,1009.00
2018-04-16T03:30:11.137Z,1009.00
2018-04-16T03:31:11.001Z,1008.93
2018-04-16T03:32:11.024Z,1008.93
2018-04-16T03:33:11.008Z,1008.99
2018-04-16T03:34:13.160Z,1008.98
2018-04-16T03:35:13.199Z,1009.01
2018-04-16T03:36:10.908Z,1009.01
2018-04-16T03:37:10.719Z,1009.00
2018-04-16T03:38:10.764Z,1009.06
2018-04-16T03:39:10.799Z,1009.01
2018-04-16T03:40:11.211Z,1009.11
2018-04-16T03:41:11.232Z,1009.07
2018-04-16T03:42:10.874Z,1009.05
2018-04-16T03:43:10.933Z,1009.04
2018-04-16T03:44:10.759Z,1009.04
2018-04-16T03:45:10.889Z,1009.05
2018-04-16T03:46:10.945Z,1009.00
2018-04-16T03:47:13.162Z,1009.05
2018-04-16T03:48:10.942Z,1009.06
2018-04-16T03:49:13.190Z,1009.03
2018-04-16T03:50:10.991Z,1009.08
2018-04-16T03:51:10.935Z,1009.10
2018-04-16T03:52:10.936Z,1009.06
2018-04-16T03:53:10.869Z,1009.08
2018-04-16T03:54:13.175Z,1009.06
2018-04-16T03:55:11.380Z,1009.09
2018-04-16T03:56:10.803Z,1009.10
2018-04-16T03:57:10.837Z,1009.06
2018-04-16T03:58:10.803Z,1009.08
2018-04-16T03:59:10.006Z,1009.10
2018-04-16T04:00:10.843Z,1009.09
2018-04-16T04:01:10.936Z,1009.08
2018-04-16T04:02:10.908Z,1009.11
2018-04-16T04:03:10.951Z,1009.09
2018-04-16T04:04:11.036Z,1009.09
2018-04-16T04:05:10.985Z,1009.11
2018-04-16T04:06:11.027Z,1009.10
2018-04-16T04:07:10.986Z,1009.12
2018-04-16T04:08:10.980Z,1009.12
2018-04-16T04:09:11.082Z,1009.14
2018-04-16T04:10:10.988Z,1009.08
2018-04-16T04:11:48.224Z,1009.12
2018-04-16T04:12:47.843Z,1009.13
2018-04-16T04:13:50.123Z,1009.13
2018-04-16T04:14:47.991Z,1009.17
2018-04-16T04:15:47.883Z,1009.19
2018-04-16T04:16:47.908Z,1009.22
2018-04-16T04:17:47.928Z,1009.21
2018-04-16T04:18:48.194Z,1009.24
2018-04-16T04:19:48.178Z,1009.29
2018-04-16T04:20:47.887Z,1009.34
2018-04-16T04:21:47.895Z,1009.32
2018-04-16T04:22:47.828Z,1009.44
2018-04-16T04:23:50.118Z,1009.42
2018-04-16T04:24:47.908Z,1009.49
2018-04-16T04:25:47.826Z,1009.51
2018-04-16T04:26:47.780Z,1009.53
2018-04-16T04:27:47.774Z,1009.53
2018-04-16T04:28:48.146Z,1009.53
2018-04-16T04:29:47.881Z,1009.56
2018-04-16T04:30:50.162Z,1009.55
2018-04-16T04:31:48.179Z,1009.55
2018-04-16T04:32:48.219Z,1009.52
2018-04-16T04:33:47.682Z,1009.55
2018-04-16T04:34:50.113Z,1009.61
2018-04-16T04:35:48.107Z,1009.54
2018-04-16T04:36:48.075Z,1009.61
2018-04-16T04:37:48.248Z,1009.59
2018-04-16T04:38:50.179Z,1009.63
2018-04-16T04:39:47.987Z,1009.64
2018-04-16T04:40:48.000Z,1009.64
2018-04-16T04:41:48.204Z,1009.67
2018-04-16T04:43:18.249Z,1009.66
2018-04-16T04:43:49.815Z,1009.70
2018-04-16T04:44:49.940Z,1009.74
2018-04-16T04:45:49.853Z,1009.65
2018-04-16T04:46:49.817Z,1009.68
2018-04-16T04:47:49.892Z,1009.65
2018-04-16T04:48:49.880Z,1009.67
2018-04-16T04:49:49.872Z,1009.72
2018-04-16T04:51:19.302Z,1009.74
2018-04-16T04:51:48.578Z,1009.79
2018-04-16T04:52:48.750Z,1009.79
2018-04-16T04:53:48.887Z,1009.79
2018-04-16T04:54:51.038Z,1009.75
2018-04-16T04:55:48.859Z,1009.75
2018-04-16T04:56:51.125Z,1009.75
2018-04-16T04:57:48.826Z,1009.74
2018-04-16T04:58:48.980Z,1009.79
2018-04-16T04:59:49.013Z,1009.81
2018-04-16T05:00:51.534Z,1009.76
2018-04-16T05:01:48.955Z,1009.79
2018-04-16T05:02:48.906Z,1009.75
2018-04-16T05:03:49.121Z,1009.75
2018-04-16T05:04:48.834Z,1009.80
2018-04-16T05:05:48.642Z,1009.82
2018-04-16T05:06:48.739Z,1009.79
2018-04-16T05:07:48.683Z,1009.83
2018-04-16T05:08:48.875Z,1009.80
2018-04-16T05:09:51.125Z,1009.77
2018-04-16T05:10:46.921Z,1009.71
2018-04-16T05:11:51.046Z,1009.72
2018-04-16T05:12:48.859Z,1009.76
2018-04-16T05:13:48.880Z,1009.71
2018-04-16T05:14:48.917Z,1009.70
2018-04-16T05:15:48.880Z,1009.69
2018-04-16T05:16:48.788Z,1009.68
2018-04-16T05:17:49.033Z,1009.73
2018-04-16T05:18:49.046Z,1009.75
2018-04-16T05:19:48.895Z,1009.75
2018-04-16T05:20:48.939Z,1009.80
2018-04-16T05:21:51.067Z,1009.82
2018-04-16T05:22:48.855Z,1009.83
2018-04-16T05:23:48.724Z,1009.86
2018-04-16T05:24:48.971Z,1009.88
2018-04-16T05:25:48.950Z,1009.91
2018-04-16T05:26:48.802Z,1009.80
2018-04-16T05:27:51.071Z,1009.84
2018-04-16T05:28:51.104Z,1009.88
2018-04-16T05:29:48.814Z,1009.91
2018-04-16T05:30:48.760Z,1009.88
2018-04-16T05:31:48.670Z,1009.85
2018-04-16T05:32:49.065Z,1009.89
2018-04-16T05:33:51.095Z,1009.84
2018-04-16T05:34:49.131Z,1009.82
2018-04-16T05:35:49.069Z,1009.78
2018-04-16T05:36:49.068Z,1009.81
2018-04-16T05:37:51.126Z,1009.77
2018-04-16T05:38:48.726Z,1009.78
2018-04-16T05:39:48.847Z,1009.76
2018-04-16T05:40:48.798Z,1009.81
2018-04-16T05:41:48.590Z,1009.75
2018-04-16T05:42:48.703Z,1009.76
2018-04-16T05:43:48.734Z,1009.75
2018-04-16T05:44:51.121Z,1009.71
2018-04-16T05:45:51.051Z,1009.74
2018-04-16T05:46:49.096Z,1009.76
2018-04-16T05:47:49.139Z,1009.73
2018-04-16T05:48:48.606Z,1009.77
2018-04-16T05:49:49.056Z,1009.75
2018-04-16T05:50:48.645Z,1009.76
2018-04-16T05:51:51.076Z,1009.73
2018-04-16T05:52:48.792Z,1009.73
2018-04-16T05:53:48.779Z,1009.76
2018-04-16T05:54:48.817Z,1009.81
2018-04-16T05:55:48.663Z,1009.70
2018-04-16T05:56:51.095Z,1009.76
2018-04-16T05:57:49.110Z,1009.74
2018-04-16T05:58:48.687Z,1009.79
2018-04-16T05:59:48.798Z,1009.74
2018-04-16T06:00:48.844Z,1009.81
2018-04-16T06:01:48.870Z,1009.86
2018-04-16T06:02:48.935Z,1009.88
2018-04-16T06:03:48.913Z,1009.85
2018-04-16T06:04:48.961Z,1009.78
2018-04-16T06:05:48.956Z,1009.81
2018-04-16T06:06:51.079Z,1009.85
2018-04-16T06:07:48.934Z,1009.83
2018-04-16T06:08:48.984Z,1009.80
2018-04-16T06:09:51.126Z,1009.83
2018-04-16T06:10:51.022Z,1009.81
2018-04-16T06:11:46.070Z,1009.87
2018-04-16T06:12:49.219Z,1009.88
2018-04-16T06:13:48.834Z,1009.86
2018-04-16T06:14:48.967Z,1009.90
2018-04-16T06:15:48.862Z,1009.86
2018-04-16T06:16:48.636Z,1009.85
2018-04-16T06:17:49.059Z,1009.90
2018-04-16T06:18:48.790Z,1009.90
2018-04-16T06:19:48.920Z,1009.89
2018-04-16T06:20:48.863Z,1009.87
2018-04-16T06:22:16.227Z,1009.86
2018-04-16T06:22:48.719Z,1009.89
2018-04-16T06:23:48.766Z,1009.90
2018-04-16T06:24:48.991Z,1009.91
2018-04-16T06:25:49.044Z,1009.88
2018-04-16T06:26:48.746Z,1009.85
2018-04-16T06:27:48.856Z,1009.93
2018-04-16T06:28:48.793Z,1009.93
2018-04-16T06:29:49.158Z,1009.97
2018-04-16T06:30:48.713Z,1009.95
2018-04-16T06:32:25.739Z,1009.94
2018-04-16T06:33:25.752Z,1009.99
2018-04-16T06:34:23.699Z,1009.91
2018-04-16T06:35:23.270Z,1009.93
2018-04-16T06:36:25.839Z,1009.97
2018-04-16T06:37:25.771Z,1009.98
2018-04-16T06:38:28.824Z,1009.97
2018-04-16T06:39:23.758Z,1010.03
2018-04-16T06:40:23.672Z,1010.06
2018-04-16T06:41:23.566Z,1010.07
2018-04-16T06:42:23.668Z,1010.00
2018-04-16T06:43:23.689Z,1010.03
2018-04-16T06:44:23.651Z,1010.00
2018-04-16T06:45:23.697Z,1010.02
2018-04-16T06:46:23.700Z,1010.04
2018-04-16T06:47:23.824Z,1010.03
2018-04-16T06:48:23.391Z,1010.03
2018-04-16T06:49:23.831Z,1010.03
2018-04-16T06:50:25.768Z,1009.96
2018-04-16T06:51:23.371Z,1009.96
2018-04-16T06:52:23.647Z,1010.05
2018-04-16T06:53:23.591Z,1010.01
2018-04-16T06:54:23.718Z,1009.98
2018-04-16T06:55:23.624Z,1010.01
2018-04-16T06:56:25.793Z,1009.99
2018-04-16T06:57:23.662Z,1009.99
2018-04-16T06:58:23.650Z,1009.95
2018-04-16T06:59:23.547Z,1010.05
2018-04-16T07:00:54.778Z,1010.03
2018-04-16T07:01:25.540Z,1009.99
2018-04-16T07:02:25.526Z,1010.00
2018-04-16T07:03:25.535Z,1010.04
2018-04-16T07:04:25.570Z,1010.10
2018-04-16T07:05:25.497Z,1010.01
2018-04-16T07:06:25.515Z,1010.03
2018-04-16T07:07:25.568Z,1010.06
2018-04-16T07:08:25.563Z,1010.08
2018-04-16T07:09:46.599Z,1010.11
2018-04-16T07:10:26.459Z,1010.07
2018-04-16T07:11:26.406Z,1010.04
2018-04-16T07:12:24.150Z,1010.07
2018-04-16T07:13:24.054Z,1010.08
2018-04-16T07:14:24.152Z,1010.06
2018-04-16T07:15:24.063Z,1010.06
2018-04-16T07:16:24.094Z,1010.05
2018-04-16T07:17:23.981Z,1010.07
2018-04-16T07:18:24.355Z,1010.07
2018-04-16T07:19:24.427Z,1010.11
2018-04-16T07:20:23.957Z,1010.10
2018-04-16T07:21:24.358Z,1010.16
2018-04-16T07:22:24.007Z,1010.08
2018-04-16T07:23:24.024Z,1010.12
2018-04-16T07:24:26.454Z,1010.12
2018-04-16T07:25:24.191Z,1010.13
2018-04-16T07:26:24.182Z,1010.04
2018-04-16T07:27:24.456Z,1010.14
2018-04-16T07:28:26.432Z,1010.11
2018-04-16T07:29:24.391Z,1010.11
2018-04-16T07:30:23.923Z,1010.17
2018-04-16T07:31:23.638Z,1010.13
2018-04-16T07:32:24.335Z,1010.16
2018-04-16T07:33:23.907Z,1010.17
2018-04-16T07:34:59.587Z,1010.15
2018-04-16T07:36:01.812Z,1010.20
2018-04-16T07:36:59.398Z,1010.16
2018-04-16T07:37:59.510Z,1010.24
2018-04-16T07:39:01.747Z,1010.23
2018-04-16T07:39:59.422Z,1010.20
2018-04-16T07:40:59.539Z,1010.24
2018-04-16T07:41:59.539Z,1010.30
2018-04-16T07:42:59.605Z,1010.28
2018-04-16T07:43:59.700Z,1010.30
2018-04-16T07:44:59.866Z,1010.31
2018-04-16T07:46:01.815Z,1010.31
2018-04-16T07:46:59.813Z,1010.31
2018-04-16T07:47:59.835Z,1010.33
2018-04-16T07:49:01.791Z,1010.38
2018-04-16T07:49:59.436Z,1010.43
2018-04-16T07:50:59.787Z,1010.36
2018-04-16T07:51:59.782Z,1010.43
2018-04-16T07:52:59.670Z,1010.45
2018-04-16T07:53:59.582Z,1010.43
2018-04-16T07:54:59.695Z,1010.43
2018-04-16T07:55:59.522Z,1010.48
2018-04-16T07:56:59.470Z,1010.48
2018-04-16T07:57:59.568Z,1010.51
2018-04-16T07:59:01.835Z,1010.52
2018-04-16T07:59:59.359Z,1010.49
2018-04-16T08:00:59.377Z,1010.44
2018-04-16T08:01:59.411Z,1010.48
2018-04-16T08:02:59.498Z,1010.47
2018-04-16T08:03:59.427Z,1010.44
2018-04-16T08:04:59.437Z,1010.45
2018-04-16T08:05:59.432Z,1010.47
2018-04-16T08:06:59.872Z,1010.49
2018-04-16T08:07:59.516Z,1010.46
2018-04-16T08:08:59.523Z,1010.55
2018-04-16T08:09:59.508Z,1010.51
2018-04-16T08:10:59.661Z,1010.55
2018-04-16T08:11:59.407Z,1010.54
2018-04-16T08:13:01.833Z,1010.53
2018-04-16T08:14:01.749Z,1010.53
2018-04-16T08:15:01.780Z,1010.47
2018-04-16T08:16:01.855Z,1010.56
2018-04-16T08:17:01.779Z,1010.56
2018-04-16T08:18:01.836Z,1010.57
2018-04-16T08:19:01.765Z,1010.55
2018-04-16T08:19:59.509Z,1010.52
2018-04-16T08:20:59.780Z,1010.55
2018-04-16T08:21:59.895Z,1010.54
2018-04-16T08:23:01.829Z,1010.57
2018-04-16T08:23:59.794Z,1010.62
2018-04-16T08:24:59.356Z,1010.64
2018-04-16T08:25:59.543Z,1010.57
2018-04-16T08:26:59.595Z,1010.70
2018-04-16T08:27:59.554Z,1010.66
2018-04-16T08:28:59.669Z,1010.63
2018-04-16T08:29:59.504Z,1010.65
2018-04-16T08:30:59.568Z,1010.66
2018-04-16T08:31:59.388Z,1010.67
2018-04-16T08:32:59.483Z,1010.70
2018-04-16T08:33:59.161Z,1010.69
2018-04-16T08:34:59.976Z,1010.69
2018-04-16T08:36:36.112Z,1010.71
2018-04-16T08:37:38.355Z,1010.65
2018-04-16T08:38:38.407Z,1010.69
2018-04-16T08:39:38.355Z,1010.64
2018-04-16T08:40:38.374Z,1010.60
2018-04-16T08:41:36.307Z,1010.62
2018-04-16T08:42:36.200Z,1010.63
2018-04-16T08:43:38.339Z,1010.59
2018-04-16T08:44:38.390Z,1010.66
2018-04-16T08:45:38.332Z,1010.64
2018-04-16T08:46:35.934Z,1010.60
2018-04-16T08:47:38.366Z,1010.60
2018-04-16T08:48:35.967Z,1010.59
2018-04-16T08:49:38.387Z,1010.59
2018-04-16T08:50:36.121Z,1010.60
2018-04-16T08:51:38.378Z,1010.63
2018-04-16T08:52:38.430Z,1010.58
2018-04-16T08:53:38.399Z,1010.54
2018-04-16T08:54:38.364Z,1010.60
2018-04-16T08:55:36.067Z,1010.58
2018-04-16T08:56:38.358Z,1010.60
2018-04-16T08:57:38.389Z,1010.57
2018-04-16T08:58:36.088Z,1010.57
2018-04-16T08:59:36.084Z,1010.58
2018-04-16T09:00:38.369Z,1010.58
2018-04-16T09:01:38.363Z,1010.61
2018-04-16T09:02:36.051Z,1010.63
2018-04-16T09:03:38.379Z,1010.67
2018-04-16T09:04:36.099Z,1010.68
2018-04-16T09:05:38.397Z,1010.59
2018-04-16T09:06:38.426Z,1010.62
2018-04-16T09:07:38.362Z,1010.65
2018-04-16T09:08:38.393Z,1010.61
2018-04-16T09:09:36.326Z,1010.63
2018-04-16T09:10:38.360Z,1010.62
2018-04-16T09:11:36.179Z,1010.64
2018-04-16T09:12:36.272Z,1010.65
2018-04-16T09:13:38.402Z,1010.67
2018-04-16T09:14:42.475Z,1010.65
2018-04-16T09:15:36.273Z,1010.66
2018-04-16T09:16:38.395Z,1010.65
2018-04-16T09:17:36.433Z,1010.64
2018-04-16T09:18:36.212Z,1010.60
2018-04-16T09:19:38.334Z,1010.62
2018-04-16T09:20:38.346Z,1010.60
2018-04-16T09:21:38.384Z,1010.59
2018-04-16T09:22:36.179Z,1010.66
2018-04-16T09:23:36.099Z,1010.62
2018-04-16T09:24:38.410Z,1010.63
2018-04-16T09:25:36.101Z,1010.60
2018-04-16T09:26:36.162Z,1010.59
2018-04-16T09:27:38.433Z,1010.64
2018-04-16T09:28:36.127Z,1010.65
2018-04-16T09:29:38.398Z,1010.68
2018-04-16T09:30:36.338Z,1010.68
2018-04-16T09:31:38.387Z,1010.67
2018-04-16T09:32:36.353Z,1010.71
2018-04-16T09:33:35.930Z,1010.69
2018-04-16T09:34:38.362Z,1010.72
2018-04-16T09:35:35.667Z,1010.71
2018-04-16T09:36:35.956Z,1010.80
2018-04-16T09:37:38.388Z,1010.78
2018-04-16T09:38:38.355Z,1010.74
2018-04-16T09:39:38.445Z,1010.72
2018-04-16T09:40:36.199Z,1010.72
2018-04-16T09:41:38.452Z,1010.68
2018-04-16T09:42:38.383Z,1010.73
2018-04-16T09:43:36.135Z,1010.73
2018-04-16T09:44:36.260Z,1010.72
2018-04-16T09:45:38.391Z,1010.69
2018-04-16T09:46:36.466Z,1010.69
2018-04-16T09:47:38.390Z,1010.69
2018-04-16T09:48:36.287Z,1010.71
2018-04-16T09:49:36.353Z,1010.72
2018-04-16T09:50:38.404Z,1010.71
2018-04-16T09:51:36.201Z,1010.79
2018-04-16T09:52:36.154Z,1010.74
2018-04-16T09:53:36.227Z,1010.70
2018-04-16T09:54:38.459Z,1010.68
2018-04-16T09:55:36.214Z,1010.69
2018-04-16T09:56:36.377Z,1010.65
2018-04-16T09:57:36.382Z,1010.64
2018-04-16T09:58:36.407Z,1010.66
2018-04-16T09:59:36.366Z,1010.63
2018-04-16T10:00:38.394Z,1010.65
2018-04-16T10:01:36.085Z,1010.74
2018-04-16T10:02:36.099Z,1010.66
2018-04-16T10:03:38.386Z,1010.64
2018-04-16T10:04:38.423Z,1010.66
2018-04-16T10:05:38.374Z,1010.70
2018-04-16T10:06:36.043Z,1010.70
2018-04-16T10:07:36.124Z,1010.64
2018-04-16T10:08:36.102Z,1010.67
2018-04-16T10:09:38.414Z,1010.67
2018-04-16T10:10:36.309Z,1010.67
2018-04-16T10:11:36.359Z,1010.65
2018-04-16T10:12:38.418Z,1010.64
2018-04-16T10:13:35.974Z,1010.68
2018-04-16T10:14:36.429Z,1010.70
2018-04-16T10:15:35.998Z,1010.67
2018-04-16T10:16:38.432Z,1010.71
2018-04-16T10:17:38.460Z,1010.72
2018-04-16T10:18:36.185Z,1010.68
2018-04-16T10:19:36.212Z,1010.78
2018-04-16T10:20:38.434Z,1010.75
2018-04-16T10:21:36.447Z,1010.74
2018-04-16T10:22:38.386Z,1010.72
2018-04-16T10:23:36.347Z,1010.70
2018-04-16T10:24:36.395Z,1010.76
2018-04-16T10:25:36.362Z,1010.72
2018-04-16T10:26:38.383Z,1010.73
2018-04-16T10:27:36.211Z,1010.69
2018-04-16T10:28:38.466Z,1010.71
2018-04-16T10:29:36.359Z,1010.69
2018-04-16T10:30:38.795Z,1010.68
2018-04-16T10:31:36.367Z,1010.70
2018-04-16T10:32:36.455Z,1010.74
2018-04-16T10:33:38.428Z,1010.70
2018-04-16T10:34:38.475Z,1010.72
2018-04-16T10:35:35.872Z,1010.65
2018-04-16T10:36:36.179Z,1010.69
2018-04-16T10:37:36.211Z,1010.63
2018-04-16T10:38:36.167Z,1010.71
2018-04-16T10:39:36.120Z,1010.68
2018-04-16T10:40:36.178Z,1010.64
2018-04-16T10:41:36.246Z,1010.70
2018-04-16T10:42:36.301Z,1010.73
2018-04-16T10:44:07.039Z,1010.73
2018-04-16T10:44:38.084Z,1010.71
2018-04-16T10:45:38.145Z,1010.69
2018-04-16T10:46:38.164Z,1010.72
2018-04-16T10:47:38.112Z,1010.68
2018-04-16T10:48:38.047Z,1010.63
2018-04-16T10:49:38.121Z,1010.64
2018-04-16T10:50:59.194Z,1010.58
2018-04-16T10:51:36.678Z,1010.58
2018-04-16T10:52:36.769Z,1010.59
2018-04-16T10:53:36.684Z,1010.58
2018-04-16T10:54:36.765Z,1010.58
2018-04-16T10:55:36.924Z,1010.59
2018-04-16T10:56:36.506Z,1010.59
2018-04-16T10:57:36.978Z,1010.54
2018-04-16T10:58:37.062Z,1010.60
2018-04-16T10:59:39.021Z,1010.60
2018-04-16T11:00:38.982Z,1010.60
2018-04-16T11:01:39.010Z,1010.53
2018-04-16T11:02:36.700Z,1010.55
2018-04-16T11:03:36.751Z,1010.51
2018-04-16T11:04:36.701Z,1010.57
2018-04-16T11:05:38.965Z,1010.54
2018-04-16T11:06:36.554Z,1010.52
2018-04-16T11:07:36.575Z,1010.49
2018-04-16T11:08:36.776Z,1010.50
2018-04-16T11:09:36.770Z,1010.49
2018-04-16T11:11:04.708Z,1010.49
2018-04-16T11:11:38.783Z,1010.51
2018-04-16T11:13:50.524Z,1010.46
2018-04-16T11:14:50.526Z,1010.46
2018-04-16T11:15:50.484Z,1010.50
2018-04-16T11:16:50.564Z,1010.40
2018-04-16T11:17:52.782Z,1010.47
2018-04-16T11:18:52.843Z,1010.53
2018-04-16T11:19:53.058Z,1010.45
2018-04-16T11:20:52.791Z,1010.44
2018-04-16T11:21:50.445Z,1010.44
2018-04-16T11:22:50.633Z,1010.43
2018-04-16T11:23:50.750Z,1010.37
2018-04-16T11:24:50.630Z,1010.42
2018-04-16T11:25:50.619Z,1010.47
2018-04-16T11:26:50.587Z,1010.44
2018-04-16T11:27:50.811Z,1010.44
2018-04-16T11:29:26.614Z,1010.49
2018-04-16T11:30:28.734Z,1010.53
2018-04-16T11:31:26.315Z,1010.50
2018-04-16T11:32:28.738Z,1010.41
2018-04-16T11:33:26.358Z,1010.46
2018-04-16T11:34:26.375Z,1010.53
2018-04-16T11:35:26.441Z,1010.49
2018-04-16T11:36:28.688Z,1010.48
2018-04-16T11:37:28.731Z,1010.47
2018-04-16T11:38:26.542Z,1010.43
2018-04-16T11:39:26.511Z,1010.42
2018-04-16T11:40:26.651Z,1010.48
2018-04-16T11:41:28.687Z,1010.48
2018-04-16T11:42:26.717Z,1010.43
2018-04-16T11:43:26.828Z,1010.50
2018-04-16T11:44:26.343Z,1010.49
2018-04-16T11:45:26.339Z,1010.45
2018-04-16T11:46:26.538Z,1010.46
2018-04-16T11:47:26.610Z,1010.47
2018-04-16T11:48:26.594Z,1010.46
2018-04-16T11:49:26.538Z,1010.49
2018-04-16T11:50:26.499Z,1010.47
2018-04-16T11:51:26.541Z,1010.47
2018-04-16T11:52:28.684Z,1010.45
2018-04-16T11:53:28.717Z,1010.50
2018-04-16T11:54:26.727Z,1010.47
2018-04-16T11:55:28.684Z,1010.45
2018-04-16T11:57:05.818Z,1010.40
2018-04-16T11:58:05.844Z,1010.43
2018-04-16T11:59:07.964Z,1010.44
2018-04-16T12:00:07.978Z,1010.43
2018-04-16T12:01:08.000Z,1010.49
2018-04-16T12:02:05.572Z,1010.46
2018-04-16T12:03:05.934Z,1010.44
2018-04-16T12:04:05.852Z,1010.45
2018-04-16T12:05:05.751Z,1010.42
2018-04-16T12:06:07.966Z,1010.44
2018-04-16T12:07:05.753Z,1010.48
2018-04-16T12:08:05.680Z,1010.46
2018-04-16T12:09:08.002Z,1010.46
2018-04-16T12:10:09.528Z,1010.52
2018-04-16T12:11:07.103Z,1010.50
2018-04-16T12:12:07.076Z,1010.46
2018-04-16T12:13:07.119Z,1010.49